Time;durP1;ratioP1;P1;durP2;ratioP2;P2;SDS_P1;SDS_P2;PMS_P1;PMS_P2;Temp;Humidity;BMP_temperature;BMP_pressure;BME280_temperature;BME280_humidity;BME280_pressure;Samples;Min_cycle;Max_cycle;Signal;HPM_P1;HPM_P2
2023/03/30 00:01:30;;;;;;;3.60;2.03;;;;;;;;;;4955078;28;20065;-66
2023/03/30 00:15:49;;;;;;;2.80;1.77;;;;;;;;;;5083752;27;2144378;-59
2023/03/30 00:18:16;;;;;;;2.67;1.88;;;;;;;;;;5125036;28;20027;-61
2023/03/30 00:23:19;;;;;;;3.80;1.80;;;;;;;;;;5184482;23;20091;-65
2023/03/30 00:25:46;;;;;;;1.88;1.60;;;;;;;;;;5037776;28;20132;-66
2023/03/30 00:28:12;;;;;;;2.80;1.83;;;;;;;;;;5042589;28;20075;-64
2023/03/30 00:30:40;;;;;;;8.07;2.60;;;;;;;;;;5049106;28;20017;-64
2023/03/30 00:33:07;;;;;;;3.67;1.60;;;;;;;;;;5030030;28;20438;-64
2023/03/30 00:35:34;;;;;;;3.07;1.97;;;;;;;;;;5024020;28;20033;-66
2023/03/30 00:50:08;;;;;;;4.83;2.13;;;;;;;;;;5131454;27;20135;-58
2023/03/30 00:52:36;;;;;;;3.63;2.07;;;;;;;;;;5046818;28;2145083;-60
2023/03/30 00:55:04;;;;;;;3.40;2.03;;;;;;;;;;5104477;28;20035;-60
2023/03/30 00:57:32;;;;;;;2.53;2.07;;;;;;;;;;5096665;28;20048;-59
2023/03/30 00:59:59;;;;;;;4.03;2.07;;;;;;;;;;5084186;28;20127;-59
2023/03/30 01:14:02;;;;;;;2.53;1.60;;;;;;;;;;5063638;27;2106649;-59
2023/03/30 01:16:47;;;;;;;3.73;1.70;;;;;;;;;;5103775;28;20313;-60
2023/03/30 01:19:28;;;;;;;6.53;2.40;;;;;;;;;;5104288;28;20028;-60
2023/03/30 01:21:57;;;;;;;2.33;1.50;;;;;;;;;;5090534;28;20037;-59
2023/03/30 01:24:47;;;;;;;3.20;1.93;;;;;;;;;;5085220;28;20036;-59
2023/03/30 01:27:20;;;;;;;2.67;1.83;;;;;;;;;;5089185;28;20028;-59
2023/03/30 01:32:54;;;;;;;4.60;2.13;;;;;;;;;;5034844;28;20052;-66
2023/03/30 01:35:39;;;;;;;2.70;1.60;;;;;;;;;;5043649;28;20111;-66
2023/03/30 01:38:15;;;;;;;2.87;1.67;;;;;;;;;;5029289;28;20026;-65
2023/03/30 01:41:05;;;;;;;3.23;1.90;;;;;;;;;;5043587;28;20032;-67
2023/03/30 01:43:52;;;;;;;2.13;1.40;;;;;;;;;;5044094;28;20615;-68
2023/03/30 01:46:23;;;;;;;2.37;1.40;;;;;;;;;;5042747;28;20030;-67
2023/03/30 01:48:59;;;;;;;6.33;1.40;;;;;;;;;;5032269;28;20132;-64
2023/03/30 01:51:34;;;;;;;1.50;1.20;;;;;;;;;;5023652;28;20357;-67
2023/03/30 01:54:27;;;;;;;4.23;1.60;;;;;;;;;;5028859;28;20030;-67
2023/03/30 01:57:12;;;;;;;2.53;1.60;;;;;;;;;;5025292;28;20038;-65
2023/03/30 02:00:00;;;;;;;5.53;2.57;;;;;;;;;;5028765;28;20537;-66
2023/03/30 02:02:29;;;;;;;2.50;1.53;;;;;;;;;;5028508;28;20448;-67
2023/03/30 02:04:57;;;;;;;6.43;1.47;;;;;;;;;;5028932;28;20032;-66
2023/03/30 02:07:26;;;;;;;2.37;1.57;;;;;;;;;;5043231;28;20032;-66
2023/03/30 02:09:55;;;;;;;1.90;1.57;;;;;;;;;;5043076;28;20025;-67
2023/03/30 02:12:23;;;;;;;1.87;1.50;;;;;;;;;;5043176;28;20036;-65
2023/03/30 02:14:52;;;;;;;2.60;1.17;;;;;;;;;;5032631;28;20379;-68
2023/03/30 02:17:24;;;;;;;2.47;1.73;;;;;;;;;;5034955;28;20372;-64
2023/03/30 02:19:53;;;;;;;1.63;1.13;;;;;;;;;;5034851;28;20028;-65
2023/03/30 02:22:20;;;;;;;3.33;1.93;;;;;;;;;;5034729;28;20037;-63
2023/03/30 02:24:48;;;;;;;3.17;2.07;;;;;;;;;;5035067;28;20037;-65
2023/03/30 02:27:15;;;;;;;5.47;2.40;;;;;;;;;;5032207;28;20025;-66
2023/03/30 02:29:43;;;;;;;4.17;1.97;;;;;;;;;;5029734;28;20384;-65
2023/03/30 02:32:21;;;;;;;4.17;2.20;;;;;;;;;;5029506;28;20025;-64
2023/03/30 02:34:59;;;;;;;3.40;2.10;;;;;;;;;;5029008;28;20353;-65
2023/03/30 02:37:44;;;;;;;2.13;1.57;;;;;;;;;;5015477;28;20033;-65
2023/03/30 02:40:18;;;;;;;1.85;1.48;;;;;;;;;;5026879;28;20378;-66
2023/03/30 02:42:45;;;;;;;;;;;;;;;;;;5034753;28;20037;-65
2023/03/30 02:45:21;;;;;;;5.97;2.83;;;;;;;;;;5034474;28;19905;-64
2023/03/30 02:48:06;;;;;;;11.67;2.33;;;;;;;;;;5034737;28;20051;-66
2023/03/30 02:50:36;;;;;;;2.80;2.20;;;;;;;;;;5029565;28;20080;-67
2023/03/30 02:53:12;;;;;;;3.87;2.50;;;;;;;;;;5029234;28;20112;-66
2023/03/30 02:55:59;;;;;;;8.60;2.60;;;;;;;;;;5029004;28;20108;-68
2023/03/30 02:58:26;;;;;;;1.83;1.30;;;;;;;;;;5029025;28;20365;-66
2023/03/30 03:01:00;;;;;;;3.30;2.00;;;;;;;;;;5033975;28;20025;-67
2023/03/30 03:03:27;;;;;;;;;;;;;;;;;;5034370;28;20029;-64
2023/03/30 03:05:54;;;;;;;3.23;2.20;;;;;;;;;;5034501;28;19948;-67
2023/03/30 03:08:24;;;;;;;6.60;1.83;;;;;;;;;;5033069;28;20500;-67
2023/03/30 03:10:51;;;;;;;3.07;2.23;;;;;;;;;;5033508;28;20033;-66
2023/03/30 03:13:20;;;;;;;12.70;2.80;;;;;;;;;;5012940;28;20092;-66
2023/03/30 03:15:48;;;;;;;4.57;2.23;;;;;;;;;;5014651;28;20113;-67
2023/03/30 03:18:15;;;;;;;7.53;3.07;;;;;;;;;;5028930;28;20420;-66
2023/03/30 03:20:42;;;;;;;4.10;2.93;;;;;;;;;;5028363;28;20017;-66
2023/03/30 03:23:11;;;;;;;9.27;3.20;;;;;;;;;;5033421;28;20033;-65
2023/03/30 03:25:37;;;;;;;7.50;2.83;;;;;;;;;;5031020;28;20021;-66
2023/03/30 03:28:04;;;;;;;10.93;3.13;;;;;;;;;;5022887;28;20365;-66
2023/03/30 03:30:31;;;;;;;4.83;2.97;;;;;;;;;;5017105;28;20491;-66
2023/03/30 03:32:58;;;;;;;7.03;3.03;;;;;;;;;;5033551;28;20384;-66
2023/03/30 03:35:26;;;;;;;8.17;2.67;;;;;;;;;;5028477;28;20029;-66
2023/03/30 03:37:52;;;;;;;5.17;2.87;;;;;;;;;;5028098;28;20032;-66
2023/03/30 03:40:19;;;;;;;8.37;2.73;;;;;;;;;;5014895;28;20053;-66
2023/03/30 03:42:46;;;;;;;6.80;3.30;;;;;;;;;;5016054;28;20107;-66
2023/03/30 03:45:15;;;;;;;6.97;3.07;;;;;;;;;;5031627;28;20026;-66
2023/03/30 03:47:41;;;;;;;5.57;3.23;;;;;;;;;;5031257;28;20053;-66
2023/03/30 03:50:08;;;;;;;7.53;3.73;;;;;;;;;;5016397;28;20022;-66
2023/03/30 03:52:36;;;;;;;4.13;2.87;;;;;;;;;;5033424;28;20491;-66
2023/03/30 03:55:03;;;;;;;4.07;2.63;;;;;;;;;;5026552;28;20029;-66
2023/03/30 03:57:30;;;;;;;4.63;3.37;;;;;;;;;;5014654;28;20383;-67
2023/03/30 03:59:58;;;;;;;5.07;2.33;;;;;;;;;;5022093;28;20504;-66
2023/03/30 04:02:25;;;;;;;17.97;2.83;;;;;;;;;;5008249;28;20026;-66
2023/03/30 04:04:52;;;;;;;2.40;1.83;;;;;;;;;;5008060;28;20033;-66
2023/03/30 04:07:20;;;;;;;4.00;2.43;;;;;;;;;;5017614;28;20021;-66
2023/03/30 04:09:47;;;;;;;14.63;2.63;;;;;;;;;;5018340;28;20041;-66
2023/03/30 04:12:13;;;;;;;9.53;3.33;;;;;;;;;;5012693;28;20483;-66
2023/03/30 04:14:40;;;;;;;4.07;2.47;;;;;;;;;;5013200;28;20026;-66
2023/03/30 04:17:07;;;;;;;7.63;2.30;;;;;;;;;;5020679;28;20440;-66
2023/03/30 04:19:34;;;;;;;4.77;3.07;;;;;;;;;;5009292;28;20040;-66
2023/03/30 04:22:04;;;;;;;32.60;2.93;;;;;;;;;;5008095;28;20030;-66
2023/03/30 04:24:34;;;;;;;22.10;3.60;;;;;;;;;;5027613;28;20018;-66
2023/03/30 04:27:01;;;;;;;6.23;3.40;;;;;;;;;;5027630;28;20032;-66
2023/03/30 04:29:28;;;;;;;9.50;3.40;;;;;;;;;;5030395;28;20367;-66
2023/03/30 04:31:55;;;;;;;5.87;3.63;;;;;;;;;;5032506;28;20026;-66
2023/03/30 04:34:22;;;;;;;4.37;2.87;;;;;;;;;;5013154;28;20481;-66
2023/03/30 04:36:48;;;;;;;7.03;3.03;;;;;;;;;;5012646;28;20025;-65
2023/03/30 04:39:17;;;;;;;5.33;2.70;;;;;;;;;;5026477;28;20032;-65
2023/03/30 04:41:44;;;;;;;3.17;2.17;;;;;;;;;;5009383;28;20030;-66
2023/03/30 04:44:11;;;;;;;2.80;2.23;;;;;;;;;;5007709;28;20093;-65
2023/03/30 04:46:38;;;;;;;3.03;2.37;;;;;;;;;;5007201;28;20025;-65
2023/03/30 04:49:05;;;;;;;9.17;2.63;;;;;;;;;;5007371;28;20030;-65
2023/03/30 04:51:32;;;;;;;5.23;3.10;;;;;;;;;;5009919;28;20392;-64
2023/03/30 04:53:58;;;;;;;4.57;2.63;;;;;;;;;;5012705;28;20026;-64
2023/03/30 04:56:26;;;;;;;4.70;2.97;;;;;;;;;;5012502;28;20030;-65
2023/03/30 04:58:53;;;;;;;7.43;2.80;;;;;;;;;;5012483;28;20033;-67
2023/03/30 05:01:20;;;;;;;5.07;2.90;;;;;;;;;;5022884;28;20026;-65
2023/03/30 05:03:47;;;;;;;3.47;2.27;;;;;;;;;;5012884;28;20029;-64
2023/03/30 05:06:13;;;;;;;3.97;2.60;;;;;;;;;;5007521;28;20075;-66
2023/03/30 05:08:40;;;;;;;3.20;2.43;;;;;;;;;;5007247;28;20036;-66
2023/03/30 05:11:07;;;;;;;4.27;2.20;;;;;;;;;;5007486;28;20026;-67
2023/03/30 05:13:33;;;;;;;11.40;4.80;;;;;;;;;;5010593;28;20460;-67
2023/03/30 05:16:01;;;;;;;5.20;3.00;;;;;;;;;;5013890;28;20041;-67
2023/03/30 05:18:28;;;;;;;3.47;2.47;;;;;;;;;;5025714;28;20083;-65
2023/03/30 05:20:58;;;;;;;3.97;2.70;;;;;;;;;;5031710;28;20025;-66
2023/03/30 05:23:25;;;;;;;7.07;3.33;;;;;;;;;;5032014;28;20034;-66
2023/03/30 05:25:53;;;;;;;6.57;3.07;;;;;;;;;;5029938;28;20033;-65
2023/03/30 05:28:20;;;;;;;4.53;3.20;;;;;;;;;;5014962;28;20109;-66
2023/03/30 05:30:47;;;;;;;5.00;2.93;;;;;;;;;;5012523;28;20036;-67
2023/03/30 05:33:13;;;;;;;7.20;4.47;;;;;;;;;;5014766;28;20033;-64
2023/03/30 05:35:40;;;;;;;14.77;3.20;;;;;;;;;;5008527;28;20441;-66
2023/03/30 05:38:07;;;;;;;5.13;3.07;;;;;;;;;;5017091;28;20045;-66
2023/03/30 05:40:34;;;;;;;6.00;3.80;;;;;;;;;;5019622;28;20033;-66
2023/03/30 05:43:00;;;;;;;3.73;2.63;;;;;;;;;;5031649;28;20480;-66
2023/03/30 05:45:27;;;;;;;5.23;3.30;;;;;;;;;;5031938;28;20096;-66
2023/03/30 05:47:54;;;;;;;4.47;2.10;;;;;;;;;;5021092;28;20380;-66
2023/03/30 05:50:21;;;;;;;4.07;3.50;;;;;;;;;;5010500;28;20113;-66
2023/03/30 05:52:48;;;;;;;7.97;4.07;;;;;;;;;;5010515;28;20436;-66
2023/03/30 05:55:15;;;;;;;3.90;2.53;;;;;;;;;;5010179;28;20022;-67
2023/03/30 05:57:41;;;;;;;8.63;3.60;;;;;;;;;;5010895;28;20037;-66
2023/03/30 06:00:12;;;;;;;4.53;3.10;;;;;;;;;;5015756;28;20036;-66
2023/03/30 06:02:39;;;;;;;8.90;2.70;;;;;;;;;;5015685;28;20030;-66
2023/03/30 06:05:07;;;;;;;5.13;3.27;;;;;;;;;;5031259;28;20092;-66
2023/03/30 06:07:34;;;;;;;12.63;3.13;;;;;;;;;;5035236;28;20095;-67
2023/03/30 06:10:01;;;;;;;4.67;3.00;;;;;;;;;;5034333;28;20028;-66
2023/03/30 06:12:27;;;;;;;3.43;2.40;;;;;;;;;;5029473;28;20546;-66
2023/03/30 06:14:54;;;;;;;4.77;3.43;;;;;;;;;;5029693;28;20090;-67
2023/03/30 06:17:21;;;;;;;5.87;3.53;;;;;;;;;;5029832;28;20092;-66
2023/03/30 06:19:48;;;;;;;3.83;3.23;;;;;;;;;;5029893;28;20029;-66
2023/03/30 06:22:14;;;;;;;4.47;2.80;;;;;;;;;;5034750;28;20472;-66
2023/03/30 06:24:41;;;;;;;4.83;2.57;;;;;;;;;;5034994;28;20029;-66
2023/03/30 06:27:08;;;;;;;5.67;3.00;;;;;;;;;;5034557;28;20152;-67
2023/03/30 06:29:35;;;;;;;5.67;3.20;;;;;;;;;;5034512;28;20025;-66
2023/03/30 06:32:02;;;;;;;6.17;3.67;;;;;;;;;;5034725;28;20059;-66
2023/03/30 06:34:29;;;;;;;3.10;2.17;;;;;;;;;;5029368;28;20582;-66
2023/03/30 06:36:56;;;;;;;3.80;2.50;;;;;;;;;;5029458;28;20080;-66
2023/03/30 06:39:23;;;;;;;8.20;4.23;;;;;;;;;;5028849;28;20084;-66
2023/03/30 06:41:50;;;;;;;3.97;3.40;;;;;;;;;;5029335;28;20034;-66
2023/03/30 06:44:16;;;;;;;5.50;2.67;;;;;;;;;;5034242;28;20506;-66
2023/03/30 06:46:43;;;;;;;5.37;2.80;;;;;;;;;;5034472;28;20064;-66
2023/03/30 06:49:11;;;;;;;7.83;3.77;;;;;;;;;;5034429;28;20033;-66
2023/03/30 06:51:38;;;;;;;8.13;3.23;;;;;;;;;;5033988;28;20033;-66
2023/03/30 06:54:05;;;;;;;4.90;2.50;;;;;;;;;;5034491;28;20036;-66
2023/03/30 06:56:32;;;;;;;5.97;3.20;;;;;;;;;;5029202;28;20542;-66
2023/03/30 06:58:59;;;;;;;5.87;3.40;;;;;;;;;;5029109;28;20036;-66
2023/03/30 07:01:25;;;;;;;5.60;3.87;;;;;;;;;;5028821;28;20021;-66
2023/03/30 07:03:52;;;;;;;3.87;2.93;;;;;;;;;;5028411;28;20383;-66
2023/03/30 07:06:19;;;;;;;5.13;3.27;;;;;;;;;;5032976;28;20382;-66
2023/03/30 07:08:46;;;;;;;3.60;2.30;;;;;;;;;;5034159;28;20026;-66
2023/03/30 07:11:12;;;;;;;5.57;4.07;;;;;;;;;;5034148;28;20025;-66
2023/03/30 07:13:39;;;;;;;6.03;3.63;;;;;;;;;;5033935;28;20032;-66
2023/03/30 07:16:06;;;;;;;3.90;3.00;;;;;;;;;;5033583;28;20025;-66
2023/03/30 07:18:33;;;;;;;3.60;2.80;;;;;;;;;;5029596;28;20499;-66
2023/03/30 07:21:00;;;;;;;3.70;2.77;;;;;;;;;;5028572;28;20029;-66
2023/03/30 07:23:27;;;;;;;5.63;3.80;;;;;;;;;;5028191;28;20034;-66
2023/03/30 07:25:53;;;;;;;5.67;3.60;;;;;;;;;;5028547;28;20029;-66
2023/03/30 07:28:20;;;;;;;5.23;3.33;;;;;;;;;;5031766;28;20025;-66
2023/03/30 07:30:47;;;;;;;7.27;3.00;;;;;;;;;;5033563;28;20018;-66
2023/03/30 07:33:13;;;;;;;5.27;3.57;;;;;;;;;;5033683;28;20403;-66
2023/03/30 07:35:46;;;;;;;7.27;3.57;;;;;;;;;;5033439;28;20069;-66
2023/03/30 07:38:14;;;;;;;7.33;4.13;;;;;;;;;;5033166;28;20030;-67
2023/03/30 07:40:41;;;;;;;4.40;3.20;;;;;;;;;;5029488;28;20381;-66
2023/03/30 07:43:07;;;;;;;22.93;3.97;;;;;;;;;;5027967;28;20099;-67
2023/03/30 07:45:34;;;;;;;5.60;3.33;;;;;;;;;;5028242;28;20025;-66
2023/03/30 07:48:01;;;;;;;5.40;3.77;;;;;;;;;;5028037;28;20108;-66
2023/03/30 07:50:28;;;;;;;4.50;3.37;;;;;;;;;;5030698;28;20022;-66
2023/03/30 07:52:55;;;;;;;4.13;2.87;;;;;;;;;;5033236;28;20024;-66
2023/03/30 07:55:21;;;;;;;5.80;3.40;;;;;;;;;;5033314;28;20543;-66
2023/03/30 07:57:48;;;;;;;4.90;3.30;;;;;;;;;;5032777;28;20029;-66
2023/03/30 08:00:15;;;;;;;7.77;3.63;;;;;;;;;;5033058;28;20018;-66
2023/03/30 08:02:43;;;;;;;8.20;3.70;;;;;;;;;;5029637;28;20044;-66
2023/03/30 08:05:10;;;;;;;5.83;4.00;;;;;;;;;;5012028;28;20433;-66
2023/03/30 08:07:37;;;;;;;7.87;2.83;;;;;;;;;;5007929;28;20022;-66
2023/03/30 08:10:04;;;;;;;5.90;4.07;;;;;;;;;;5008071;28;20034;-65
2023/03/30 08:12:31;;;;;;;3.23;2.87;;;;;;;;;;5009768;28;20022;-66
2023/03/30 08:14:57;;;;;;;5.53;3.87;;;;;;;;;;5012669;28;20108;-65
2023/03/30 08:17:24;;;;;;;7.47;4.03;;;;;;;;;;5013168;28;20026;-66
2023/03/30 08:19:51;;;;;;;7.13;3.60;;;;;;;;;;5013180;28;20084;-65
2023/03/30 08:22:18;;;;;;;5.47;4.07;;;;;;;;;;5012717;28;20034;-65
2023/03/30 08:24:44;;;;;;;7.97;4.93;;;;;;;;;;5008832;28;20447;-66
2023/03/30 08:27:11;;;;;;;10.50;4.73;;;;;;;;;;5018947;28;20519;-66
2023/03/30 08:29:38;;;;;;;7.37;4.70;;;;;;;;;;5027175;28;20053;-65
2023/03/30 08:32:05;;;;;;;6.70;4.83;;;;;;;;;;5027200;28;20045;-65
2023/03/30 08:34:32;;;;;;;11.23;5.00;;;;;;;;;;5028832;28;20034;-65
2023/03/30 08:36:59;;;;;;;6.67;4.53;;;;;;;;;;5031465;28;20025;-65
2023/03/30 08:39:26;;;;;;;17.00;4.97;;;;;;;;;;5025561;28;20460;-65
2023/03/30 08:41:53;;;;;;;6.63;4.70;;;;;;;;;;5014644;28;20482;-66
2023/03/30 08:44:49;;;;;;;9.83;5.40;;;;;;;;;;5032420;28;20388;-65
2023/03/30 08:47:19;;;;;;;9.07;4.87;;;;;;;;;;5020765;28;20044;-66
2023/03/30 08:50:12;;;;;;;7.13;4.73;;;;;;;;;;5026792;28;20108;-65
2023/03/30 08:52:40;;;;;;;6.37;4.70;;;;;;;;;;5025225;28;20104;-65
2023/03/30 08:55:27;;;;;;;14.70;6.03;;;;;;;;;;5026983;28;20076;-65
2023/03/30 08:58:00;;;;;;;8.17;4.43;;;;;;;;;;5030283;28;20026;-65
2023/03/30 09:00:31;;;;;;;10.27;5.80;;;;;;;;;;5032023;28;20052;-65
2023/03/30 09:03:04;;;;;;;6.00;4.37;;;;;;;;;;5031994;28;20037;-65
2023/03/30 09:05:33;;;;;;;11.73;4.80;;;;;;;;;;5032185;28;20025;-66
2023/03/30 09:08:00;;;;;;;7.00;4.87;;;;;;;;;;5032426;28;20353;-65
2023/03/30 09:10:28;;;;;;;5.77;3.47;;;;;;;;;;5027184;28;20105;-65
2023/03/30 09:12:59;;;;;;;8.50;4.87;;;;;;;;;;5026621;28;20021;-66
2023/03/30 09:15:28;;;;;;;4.73;3.50;;;;;;;;;;5026891;28;20545;-65
2023/03/30 09:18:11;;;;;;;5.27;3.93;;;;;;;;;;5026438;28;20028;-65
2023/03/30 09:20:38;;;;;;;7.17;2.93;;;;;;;;;;5031679;28;20426;-65
2023/03/30 09:23:06;;;;;;;6.40;4.13;;;;;;;;;;5032002;28;20037;-65
2023/03/30 09:25:35;;;;;;;21.53;4.67;;;;;;;;;;5023499;28;20037;-65
2023/03/30 09:28:14;;;;;;;7.03;4.57;;;;;;;;;;5033608;28;20535;-65
2023/03/30 09:30:42;;;;;;;5.67;3.70;;;;;;;;;;5035840;28;20096;-65
2023/03/30 09:33:18;;;;;;;5.43;3.43;;;;;;;;;;5030591;28;20181;-66
2023/03/30 09:35:52;;;;;;;6.50;4.20;;;;;;;;;;5025074;28;20108;-66
2023/03/30 09:38:20;;;;;;;8.83;4.67;;;;;;;;;;5024972;28;20037;-65
2023/03/30 09:41:10;;;;;;;32.17;5.27;;;;;;;;;;5030084;28;20111;-65
2023/03/30 09:43:45;;;;;;;6.97;4.33;;;;;;;;;;5030178;28;20503;-65
2023/03/30 09:46:15;;;;;;;7.25;4.53;;;;;;;;;;5035211;28;20033;-65
2023/03/30 09:48:43;;;;;;;6.23;4.43;;;;;;;;;;5035339;28;20018;-65
2023/03/30 09:51:16;;;;;;;3.50;3.20;;;;;;;;;;5035536;28;20049;-65
2023/03/30 09:53:44;;;;;;;5.90;4.50;;;;;;;;;;5033529;28;20079;-66
2023/03/30 09:56:21;;;;;;;3.23;2.50;;;;;;;;;;5028602;28;20021;-65
2023/03/30 09:58:48;;;;;;;6.27;3.90;;;;;;;;;;5030249;28;20426;-65
2023/03/30 10:01:17;;;;;;;3.03;2.70;;;;;;;;;;5030121;28;20480;-66
2023/03/30 10:03:45;;;;;;;9.17;3.33;;;;;;;;;;5028350;28;20037;-66
2023/03/30 10:06:12;;;;;;;6.93;3.00;;;;;;;;;;5025041;28;20033;-65
2023/03/30 10:08:42;;;;;;;2.67;2.07;;;;;;;;;;5035081;28;20029;-65
2023/03/30 10:11:10;;;;;;;5.97;4.17;;;;;;;;;;5035344;28;20030;-65
2023/03/30 10:13:38;;;;;;;4.70;3.17;;;;;;;;;;5035188;28;20100;-65
2023/03/30 10:16:07;;;;;;;5.23;3.60;;;;;;;;;;5032666;28;20167;-66
2023/03/30 10:18:37;;;;;;;5.77;4.10;;;;;;;;;;5029819;28;20030;-65
2023/03/30 10:21:06;;;;;;;9.47;3.73;;;;;;;;;;5029822;28;20052;-65
2023/03/30 10:23:43;;;;;;;5.17;3.20;;;;;;;;;;5029595;28;20034;-66
2023/03/30 10:26:16;;;;;;;5.20;3.87;;;;;;;;;;5031283;28;20024;-65
2023/03/30 10:28:53;;;;;;;3.90;3.23;;;;;;;;;;5021886;28;20026;-65
2023/03/30 10:31:20;;;;;;;3.93;2.73;;;;;;;;;;5014995;28;20391;-65
2023/03/30 10:33:47;;;;;;;4.47;2.93;;;;;;;;;;5014714;28;20026;-65
2023/03/30 10:36:15;;;;;;;3.87;3.43;;;;;;;;;;5014713;28;20026;-66
2023/03/30 10:38:42;;;;;;;5.10;3.53;;;;;;;;;;5019894;28;20021;-66
2023/03/30 10:41:19;;;;;;;2.30;1.90;;;;;;;;;;5025016;28;20084;-65
2023/03/30 10:43:46;;;;;;;5.33;3.73;;;;;;;;;;5029131;28;20496;-66
2023/03/30 10:46:17;;;;;;;6.60;3.83;;;;;;;;;;5029287;28;20269;-66
2023/03/30 10:48:59;;;;;;;4.57;3.23;;;;;;;;;;5031479;28;20026;-66
2023/03/30 10:51:29;;;;;;;5.67;3.10;;;;;;;;;;5034460;28;20348;-65
2023/03/30 10:54:14;;;;;;;3.03;2.57;;;;;;;;;;5034274;28;20026;-65
2023/03/30 10:56:55;;;;;;;10.30;3.33;;;;;;;;;;5034258;28;20029;-65
2023/03/30 10:59:37;;;;;;;4.30;3.23;;;;;;;;;;5034144;28;20116;-65
2023/03/30 11:02:20;;;;;;;6.07;2.83;;;;;;;;;;5029035;28;20030;-65
2023/03/30 11:04:49;;;;;;;5.20;3.03;;;;;;;;;;5028840;28;20323;-66
2023/03/30 11:07:28;;;;;;;4.07;2.83;;;;;;;;;;5029006;28;20756;-66
2023/03/30 11:09:58;;;;;;;8.53;2.67;;;;;;;;;;5028512;28;20025;-65
2023/03/30 11:12:29;;;;;;;2.50;2.13;;;;;;;;;;5033633;28;20313;-65
2023/03/30 11:14:57;;;;;;;3.27;2.67;;;;;;;;;;5034076;28;20342;-65
2023/03/30 11:17:31;;;;;;;3.60;2.27;;;;;;;;;;5019364;28;20587;-65
2023/03/30 11:20:00;;;;;;;4.07;2.83;;;;;;;;;;5014166;28;20620;-65
2023/03/30 11:22:36;;;;;;;4.50;2.80;;;;;;;;;;5012628;28;20290;-66
2023/03/30 11:25:08;;;;;;;4.80;3.20;;;;;;;;;;5008882;28;20355;-65
2023/03/30 11:27:51;;;;;;;3.87;2.93;;;;;;;;;;5008874;28;21113;-66
2023/03/30 11:30:28;;;;;;;5.10;2.50;;;;;;;;;;5008875;28;20354;-65
2023/03/30 11:33:17;;;;;;;3.20;2.70;;;;;;;;;;5028523;28;20329;-65
2023/03/30 11:35:48;;;;;;;3.63;2.80;;;;;;;;;;5028194;28;20277;-65
2023/03/30 11:38:18;;;;;;;4.37;2.93;;;;;;;;;;5033575;28;20255;-65
2023/03/30 11:40:55;;;;;;;8.47;3.57;;;;;;;;;;5032940;28;20741;-65
2023/03/30 11:43:28;;;;;;;6.40;3.23;;;;;;;;;;5013674;28;20295;-65
2023/03/30 11:46:03;;;;;;;4.17;2.73;;;;;;;;;;5009625;28;20666;-65
2023/03/30 11:48:30;;;;;;;;;;;;;;;;;;5008862;28;20764;-66
2023/03/30 11:51:14;;;;;;;4.47;3.00;;;;;;;;;;5008190;28;19906;-65
2023/03/30 11:53:56;;;;;;;3.40;2.57;;;;;;;;;;5008128;28;20275;-65
2023/03/30 11:56:23;;;;;;;4.60;3.47;;;;;;;;;;5012598;28;20269;-65
2023/03/30 11:58:53;;;;;;;4.83;3.07;;;;;;;;;;5013315;28;20263;-65
2023/03/30 12:01:22;;;;;;;3.07;2.40;;;;;;;;;;5013042;28;20030;-65
2023/03/30 12:03:51;;;;;;;8.37;6.07;;;;;;;;;;5013243;28;20302;-65
2023/03/30 12:06:24;;;;;;;8.27;3.30;;;;;;;;;;5013029;28;20290;-66
2023/03/30 12:09:04;;;;;;;6.67;4.57;;;;;;;;;;5008352;28;20291;-65
2023/03/30 12:11:34;;;;;;;5.53;4.23;;;;;;;;;;5007838;28;20824;-66
2023/03/30 12:14:01;;;;;;;8.50;4.27;;;;;;;;;;5007922;28;20350;-65
2023/03/30 12:16:49;;;;;;;5.63;3.90;;;;;;;;;;5007708;28;20026;-65
2023/03/30 12:19:28;;;;;;;11.13;4.33;;;;;;;;;;5013068;28;20105;-65
2023/03/30 12:21:57;;;;;;;6.40;4.10;;;;;;;;;;5012735;28;20026;-65
2023/03/30 12:24:56;;;;;;;4.87;3.13;;;;;;;;;;5013181;28;20271;-65
2023/03/30 12:27:23;;;;;;;4.97;4.00;;;;;;;;;;4980024;28;20754;-65
2023/03/30 12:29:51;;;;;;;5.00;3.57;;;;;;;;;;5010152;28;20321;-65
2023/03/30 12:32:27;;;;;;;8.50;3.80;;;;;;;;;;5007660;28;20255;-65
2023/03/30 12:34:55;;;;;;;11.90;5.23;;;;;;;;;;5007421;28;20663;-65
2023/03/30 12:37:25;;;;;;;7.60;4.23;;;;;;;;;;5007544;28;20259;-65
2023/03/30 12:40:06;;;;;;;5.63;4.17;;;;;;;;;;5009272;28;20260;-65
2023/03/30 12:42:35;;;;;;;3.90;3.07;;;;;;;;;;5012712;28;20358;-65
2023/03/30 12:45:05;;;;;;;9.00;4.50;;;;;;;;;;5012971;28;20609;-65
2023/03/30 12:47:42;;;;;;;3.63;3.13;;;;;;;;;;5012551;28;20263;-66
2023/03/30 12:50:28;;;;;;;10.60;3.93;;;;;;;;;;5012703;28;20252;-65
2023/03/30 12:53:13;;;;;;;4.93;3.38;;;;;;;;;;5008938;28;20640;-65
2023/03/30 12:55:48;;;;;;;12.48;5.10;;;;;;;;;;5007313;28;20512;-65
2023/03/30 12:58:33;;;;;;;6.37;4.07;;;;;;;;;;5006982;28;20030;-65
2023/03/30 13:01:11;;;;;;;7.00;4.22;;;;;;;;;;5007138;28;20270;-65
2023/03/30 13:03:48;;;;;;;10.53;4.70;;;;;;;;;;5011802;28;20033;-65
2023/03/30 13:06:44;;;;;;;8.70;4.97;;;;;;;;;;5012387;28;20347;-65
2023/03/30 13:09:31;;;;;;;6.82;4.65;;;;;;;;;;4959628;28;20349;-65
2023/03/30 13:11:57;;;;;;;5.80;4.07;;;;;;;;;;5012178;28;20070;-65
2023/03/30 13:14:30;;;;;;;10.83;4.73;;;;;;;;;;5019863;28;20337;-65
2023/03/30 13:17:00;;;;;;;8.83;5.20;;;;;;;;;;5026760;28;20266;-65
2023/03/30 13:19:27;;;;;;;15.77;4.47;;;;;;;;;;5026771;28;20259;-65
2023/03/30 13:21:58;;;;;;;5.20;3.60;;;;;;;;;;5026649;28;20279;-66
2023/03/30 13:24:30;;;;;;;4.97;3.67;;;;;;;;;;5027953;28;20430;-65
2023/03/30 13:27:15;;;;;;;10.60;4.03;;;;;;;;;;5031971;28;20017;-65
2023/03/30 13:29:42;;;;;;;8.60;4.43;;;;;;;;;;5018999;28;20033;-66
2023/03/30 13:32:14;;;;;;;3.23;2.67;;;;;;;;;;5029207;28;20029;-67
2023/03/30 13:34:41;;;;;;;3.87;2.87;;;;;;;;;;5031744;28;20038;-66
2023/03/30 13:37:23;;;;;;;4.03;3.10;;;;;;;;;;5028911;28;20026;-67
2023/03/30 13:39:55;;;;;;;4.87;3.10;;;;;;;;;;5026291;28;20419;-66
2023/03/30 13:42:30;;;;;;;4.20;2.67;;;;;;;;;;5026445;28;20072;-67
2023/03/30 13:45:00;;;;;;;4.00;2.87;;;;;;;;;;5011999;28;20485;-66
2023/03/30 13:47:27;;;;;;;3.90;2.33;;;;;;;;;;5010089;28;20018;-66
2023/03/30 13:50:07;;;;;;;3.33;2.07;;;;;;;;;;5011652;28;20076;-66
2023/03/30 13:52:35;;;;;;;4.43;2.60;;;;;;;;;;5012157;28;20030;-66
2023/03/30 13:55:03;;;;;;;4.20;2.47;;;;;;;;;;5011945;28;20033;-66
2023/03/30 13:57:39;;;;;;;4.03;2.63;;;;;;;;;;5011947;28;20037;-66
2023/03/30 14:00:09;;;;;;;4.37;2.13;;;;;;;;;;5006998;28;20029;-67
2023/03/30 14:02:40;;;;;;;12.97;2.40;;;;;;;;;;5016870;28;20477;-66
2023/03/30 14:05:14;;;;;;;5.83;2.67;;;;;;;;;;5025947;28;20041;-67
2023/03/30 14:07:45;;;;;;;9.45;2.15;;;;;;;;;;5026341;28;20496;-67
2023/03/30 14:10:14;;;;;;;5.57;2.83;;;;;;;;;;5032493;28;20025;-66
2023/03/30 14:12:41;;;;;;;5.00;2.53;;;;;;;;;;5027682;28;20116;-66
2023/03/30 14:15:26;;;;;;;3.93;2.70;;;;;;;;;;5034105;28;20026;-67
2023/03/30 14:17:58;;;;;;;2.88;1.88;;;;;;;;;;5023219;28;20030;-67
2023/03/30 14:20:31;;;;;;;5.13;3.27;;;;;;;;;;5014793;28;20045;-67
2023/03/30 14:22:59;;;;;;;7.00;2.10;;;;;;;;;;5009597;28;20034;-67
2023/03/30 14:25:31;;;;;;;4.40;1.80;;;;;;;;;;5009859;28;20030;-67
2023/03/30 14:28:12;;;;;;;3.77;2.00;;;;;;;;;;5018554;28;20083;-67
2023/03/30 14:30:38;;;;;;;4.33;3.10;;;;;;;;;;5029957;28;20021;-67
2023/03/30 14:33:09;;;;;;;4.67;2.73;;;;;;;;;;5020782;28;20033;-67
2023/03/30 14:36:02;;;;;;;7.87;2.63;;;;;;;;;;5016740;28;20025;-67
2023/03/30 14:38:37;;;;;;;5.90;2.70;;;;;;;;;;5032119;28;20104;-67
2023/03/30 14:41:26;;;;;;;4.63;2.67;;;;;;;;;;5034202;28;20076;-67
2023/03/30 14:44:01;;;;;;;4.67;2.33;;;;;;;;;;5026578;28;20061;-68
2023/03/30 14:46:30;;;;;;;9.57;3.97;;;;;;;;;;5015333;28;20037;-67
2023/03/30 14:48:57;;;;;;;6.27;3.40;;;;;;;;;;5009462;28;20104;-67
2023/03/30 14:51:34;;;;;;;7.17;2.97;;;;;;;;;;5009108;28;20030;-67
2023/03/30 14:54:01;;;;;;;6.87;3.00;;;;;;;;;;5012183;28;20022;-67
2023/03/30 14:56:27;;;;;;;6.80;3.60;;;;;;;;;;5014738;28;20353;-67
2023/03/30 14:58:55;;;;;;;6.27;3.13;;;;;;;;;;5014543;28;20040;-67
2023/03/30 15:01:29;;;;;;;5.17;3.20;;;;;;;;;;5014593;28;20026;-67
2023/03/30 15:04:09;;;;;;;3.97;2.70;;;;;;;;;;5013919;28;20026;-67
2023/03/30 15:06:36;;;;;;;5.23;2.87;;;;;;;;;;5010535;28;20033;-67
2023/03/30 15:09:06;;;;;;;4.30;2.80;;;;;;;;;;5008910;28;20104;-68
2023/03/30 15:11:34;;;;;;;4.93;2.97;;;;;;;;;;5022527;28;20033;-68
2023/03/30 15:14:03;;;;;;;4.63;2.40;;;;;;;;;;5020257;28;20109;-67
2023/03/30 15:16:32;;;;;;;4.87;2.20;;;;;;;;;;5031655;28;20018;-68
2023/03/30 15:19:03;;;;;;;4.17;2.13;;;;;;;;;;5034007;28;20025;-67
2023/03/30 15:21:31;;;;;;;6.20;2.40;;;;;;;;;;5020694;28;20117;-67
2023/03/30 15:23:59;;;;;;;5.23;2.27;;;;;;;;;;5014044;28;20100;-69
2023/03/30 15:26:26;;;;;;;3.63;2.30;;;;;;;;;;5014083;28;20057;-67
2023/03/30 15:28:55;;;;;;;6.80;2.30;;;;;;;;;;5028801;28;20387;-68
2023/03/30 15:31:22;;;;;;;4.23;2.57;;;;;;;;;;5028290;28;20041;-68
2023/03/30 15:34:01;;;;;;;4.83;3.00;;;;;;;;;;5028145;28;20017;-68
2023/03/30 15:36:34;;;;;;;5.07;2.40;;;;;;;;;;5028264;28;20447;-68
2023/03/30 15:39:00;;;;;;;4.33;2.67;;;;;;;;;;5031731;28;20382;-68
2023/03/30 15:41:46;;;;;;;4.03;2.17;;;;;;;;;;5033644;28;20053;-67
2023/03/30 15:44:22;;;;;;;4.15;2.40;;;;;;;;;;5013713;28;20041;-68
2023/03/30 15:46:49;;;;;;;3.25;2.17;;;;;;;;;;5013734;28;20057;-68